createdAt,value
2022-10-08T00:02:09.686Z,38.72
2022-10-08T00:05:12.556Z,44.45
2022-10-08T00:08:15.273Z,42.47
2022-10-08T00:11:22.506Z,39.97
2022-10-08T00:14:25.644Z,37.35
2022-10-08T00:17:28.584Z,46.15
2022-10-08T00:20:31.441Z,41.88
2022-10-08T00:23:35.037Z,35.83
2022-10-08T00:26:43.357Z,39.25
2022-10-08T00:29:47.062Z,40.38
2022-10-08T00:32:50.163Z,43.30
2022-10-08T00:35:54.095Z,51.10
2022-10-08T00:39:12.283Z,49.63
2022-10-08T00:42:15.108Z,49.50
2022-10-08T00:45:17.916Z,53.45
2022-10-08T00:48:25.970Z,53.22
2022-10-08T00:51:30.592Z,57.40
2022-10-08T00:54:33.728Z,46.43
2022-10-08T00:57:38.464Z,44.65
2022-10-08T01:00:41.738Z,48.28
2022-10-08T01:03:44.649Z,49.17
2022-10-08T01:06:56.944Z,45.50
2022-10-08T01:10:11.728Z,44.03
2022-10-08T01:13:24.785Z,44.65
2022-10-08T01:16:42.625Z,45.70
2022-10-08T01:20:15.119Z,39.80
2022-10-08T01:23:51.738Z,37.60
2022-10-08T01:27:00.393Z,43.50
2022-10-08T01:30:06.935Z,44.25
2022-10-08T01:33:23.347Z,40.65
2022-10-08T01:36:29.426Z,43.75
2022-10-08T01:39:36.264Z,43.80
2022-10-08T01:42:41.422Z,37.80
2022-10-08T01:45:51.668Z,40.63
2022-10-08T01:49:02.795Z,46.00
2022-10-08T01:52:11.164Z,47.50
2022-10-08T01:55:24.796Z,41.85
2022-10-08T01:58:54.465Z,38.10
2022-10-08T02:02:27.759Z,35.25
2022-10-08T02:05:37.712Z,37.10
2022-10-08T02:08:40.857Z,36.22
2022-10-08T02:11:43.758Z,39.42
2022-10-08T02:14:55.836Z,45.23
2022-10-08T02:18:08.027Z,44.97
2022-10-08T02:21:24.819Z,47.63
2022-10-08T02:24:35.112Z,49.85
2022-10-08T02:28:18.370Z,52.72
2022-10-08T02:31:26.069Z,48.93
2022-10-08T02:34:35.191Z,53.75
2022-10-08T02:37:45.341Z,57.88
2022-10-08T02:40:52.928Z,52.78
2022-10-08T02:43:59.684Z,55.35
2022-10-08T02:47:06.332Z,56.87
2022-10-08T02:50:15.738Z,57.67
2022-10-08T02:53:20.057Z,55.50
2022-10-08T02:56:38.963Z,57.47
2022-10-08T02:59:42.426Z,52.72
2022-10-08T03:03:11.550Z,51.40
2022-10-08T03:06:16.266Z,58.80
2022-10-08T03:09:21.211Z,56.60
2022-10-08T03:12:25.569Z,60.53
2022-10-08T03:15:30.545Z,55.35
2022-10-08T03:18:33.619Z,50.90
2022-10-08T03:21:39.484Z,51.70
2022-10-08T03:24:42.219Z,46.78
2022-10-08T03:27:44.932Z,49.00
2022-10-08T03:30:47.747Z,50.25
2022-10-08T03:33:54.741Z,54.80
2022-10-08T03:36:57.582Z,50.38
2022-10-08T03:40:00.554Z,49.05
2022-10-08T03:43:03.427Z,49.45
2022-10-08T03:46:06.846Z,44.17
2022-10-08T03:49:09.999Z,41.77
2022-10-08T03:52:13.115Z,38.10
2022-10-08T03:55:15.983Z,44.10
2022-10-08T03:58:19.467Z,39.85
2022-10-08T04:01:23.239Z,39.50
2022-10-08T04:04:26.330Z,37.83
2022-10-08T04:07:29.063Z,38.15
2022-10-08T04:10:31.826Z,42.42
2022-10-08T04:13:36.021Z,40.90
2022-10-08T04:16:38.779Z,41.80
2022-10-08T04:19:41.500Z,38.50
2022-10-08T04:22:44.531Z,40.90
2022-10-08T04:25:54.925Z,38.05
2022-10-08T04:28:57.764Z,40.05
2022-10-08T04:32:00.514Z,39.55
2022-10-08T04:35:03.289Z,36.27
2022-10-08T04:38:06.036Z,35.80
2022-10-08T04:41:11.591Z,36.58
2022-10-08T04:44:14.369Z,40.63
2022-10-08T04:47:17.590Z,32.67
2022-10-08T04:50:20.296Z,32.70
2022-10-08T04:53:26.147Z,39.15
2022-10-08T04:56:31.761Z,43.80
2022-10-08T04:59:34.526Z,37.45
2022-10-08T05:02:37.277Z,33.20
2022-10-08T05:05:45.812Z,31.27
2022-10-08T05:08:49.407Z,32.95
2022-10-08T05:11:52.222Z,31.45
2022-10-08T05:14:54.939Z,33.97
2022-10-08T05:17:58.041Z,34.20
2022-10-08T05:21:09.704Z,27.60
2022-10-08T05:24:12.553Z,33.88
2022-10-08T05:27:15.327Z,30.65
2022-10-08T05:30:21.862Z,33.17
2022-10-08T05:33:24.873Z,28.85
2022-10-08T05:36:30.326Z,26.00
2022-10-08T05:39:33.172Z,31.58
2022-10-08T05:42:36.086Z,28.83
2022-10-08T05:45:38.797Z,25.75
2022-10-08T05:48:45.170Z,27.25
2022-10-08T05:51:48.951Z,30.10
2022-10-08T05:54:51.637Z,27.05
2022-10-08T05:57:54.344Z,23.35
2022-10-08T06:01:01.663Z,23.27
2022-10-08T06:04:09.181Z,24.83
2022-10-08T06:07:11.998Z,24.90
2022-10-08T06:10:14.869Z,22.75
2022-10-08T06:13:18.336Z,25.05
2022-10-08T06:16:21.212Z,25.27
2022-10-08T06:19:24.071Z,22.70
2022-10-08T06:22:26.843Z,23.43
2022-10-08T06:25:29.575Z,22.40
2022-10-08T06:28:34.354Z,20.02
2022-10-08T06:31:37.516Z,23.33
2022-10-08T06:34:42.160Z,18.80
2022-10-08T06:37:48.722Z,19.50
2022-10-08T06:40:51.448Z,18.60
2022-10-08T06:43:55.830Z,19.52
2022-10-08T06:46:58.633Z,18.10
2022-10-08T06:50:01.729Z,14.23
2022-10-08T06:53:07.299Z,15.23
2022-10-08T06:56:14.916Z,13.48
2022-10-08T06:59:17.779Z,17.48
2022-10-08T07:02:21.536Z,14.48
2022-10-08T07:05:24.911Z,13.98
2022-10-08T07:08:28.772Z,14.03
2022-10-08T07:11:33.785Z,14.70
2022-10-08T07:14:36.849Z,15.60
2022-10-08T07:17:39.663Z,13.43
2022-10-08T07:20:42.674Z,12.65
2022-10-08T07:23:45.833Z,14.83
2022-10-08T07:26:48.631Z,12.15
2022-10-08T07:29:51.448Z,15.13
2022-10-08T07:32:54.361Z,15.82
2022-10-08T07:36:06.527Z,14.68
2022-10-08T07:39:13.864Z,13.80
2022-10-08T07:42:16.808Z,10.98
2022-10-08T07:45:19.706Z,14.68
2022-10-08T07:48:22.562Z,11.18
2022-10-08T07:51:26.828Z,17.02
2022-10-08T07:54:29.612Z,10.57
2022-10-08T07:57:32.463Z,10.23
2022-10-08T08:00:35.495Z,11.63
2022-10-08T08:03:38.664Z,12.60
2022-10-08T08:06:47.879Z,12.82
2022-10-08T08:09:51.361Z,11.40
2022-10-08T08:12:54.154Z,12.60
2022-10-08T08:16:06.641Z,12.90
2022-10-08T08:19:09.685Z,19.13
2022-10-08T08:22:12.560Z,13.65
2022-10-08T08:25:15.355Z,11.57
2022-10-08T08:28:18.182Z,11.55
2022-10-08T08:31:23.890Z,11.98
2022-10-08T08:34:26.678Z,11.63
2022-10-08T08:37:29.410Z,11.40
2022-10-08T08:40:32.187Z,12.30
2022-10-08T08:43:35.179Z,12.88
2022-10-08T08:46:42.638Z,13.32
2022-10-08T08:49:51.090Z,14.68
2022-10-08T08:52:54.696Z,14.13
2022-10-08T08:56:00.239Z,17.30
2022-10-08T08:59:45.449Z,17.77
2022-10-08T09:03:02.480Z,16.48
2022-10-08T09:06:13.160Z,19.27
2022-10-08T09:09:33.932Z,16.98
2022-10-08T09:12:41.792Z,15.03
2022-10-08T09:15:47.021Z,12.65
2022-10-08T09:18:51.759Z,16.00
2022-10-08T09:21:54.518Z,14.90
2022-10-08T09:25:04.396Z,13.95
2022-10-08T09:28:07.536Z,16.63
2022-10-08T09:31:24.706Z,12.90
2022-10-08T09:34:27.611Z,11.65
2022-10-08T09:37:30.777Z,10.80
2022-10-08T09:40:33.938Z,19.50
2022-10-08T09:43:36.736Z,13.33
2022-10-08T09:46:39.605Z,12.75
2022-10-08T09:49:43.642Z,12.82
2022-10-08T09:52:52.559Z,12.13
2022-10-08T09:55:57.945Z,9.90
2022-10-08T09:59:04.092Z,9.50
2022-10-08T10:02:27.690Z,11.52
2022-10-08T10:05:33.939Z,10.90
2022-10-08T10:09:23.516Z,13.25
2022-10-08T10:12:32.642Z,10.88
2022-10-08T10:15:50.758Z,11.50
2022-10-08T10:18:56.284Z,8.30
2022-10-08T10:22:03.026Z,9.05
2022-10-08T10:25:25.387Z,8.18
2022-10-08T10:28:53.087Z,8.50
2022-10-08T10:32:13.428Z,9.30
2022-10-08T10:35:32.465Z,6.93
2022-10-08T10:38:43.371Z,8.00
2022-10-08T10:41:46.249Z,5.65
2022-10-08T10:44:54.401Z,7.95
2022-10-08T10:47:57.620Z,8.27
2022-10-08T10:51:15.659Z,8.48
2022-10-08T10:54:52.524Z,6.72
2022-10-08T10:58:20.874Z,6.85
2022-10-08T11:01:31.289Z,10.38
2022-10-08T11:04:52.657Z,7.43
2022-10-08T11:08:11.078Z,11.00
2022-10-08T11:11:35.858Z,7.38
2022-10-08T11:14:44.970Z,10.50
2022-10-08T11:18:06.581Z,8.32
2022-10-08T11:21:34.749Z,8.43
2022-10-08T11:25:01.980Z,10.15
2022-10-08T11:28:07.961Z,8.85
2022-10-08T11:31:22.641Z,8.27
2022-10-08T11:34:35.967Z,8.45
2022-10-08T11:38:21.522Z,6.53
2022-10-08T11:42:00.295Z,8.55
2022-10-08T11:45:31.461Z,7.30
2022-10-08T11:48:35.794Z,5.97
2022-10-08T11:51:43.655Z,9.27
2022-10-08T11:54:55.416Z,6.73
2022-10-08T11:58:09.000Z,6.28
2022-10-08T12:01:12.202Z,11.52
2022-10-08T12:04:36.255Z,9.02
2022-10-08T12:07:40.702Z,8.30
2022-10-08T12:10:43.533Z,6.97
2022-10-08T12:14:15.105Z,8.82
2022-10-08T12:17:18.382Z,9.07
2022-10-08T12:20:33.079Z,6.85
2022-10-08T12:23:35.945Z,8.18
2022-10-08T12:27:16.918Z,7.23
2022-10-08T12:30:19.943Z,7.85
2022-10-08T12:33:23.782Z,8.88
2022-10-08T12:36:39.606Z,7.35
2022-10-08T12:39:47.310Z,7.53
2022-10-08T12:42:54.467Z,7.67
2022-10-08T12:46:05.649Z,7.60
2022-10-08T12:49:51.835Z,9.00
2022-10-08T12:52:54.754Z,9.90
2022-10-08T12:55:58.621Z,8.70
2022-10-08T12:59:04.195Z,7.67
2022-10-08T13:02:28.478Z,7.43
2022-10-08T13:05:36.090Z,9.68
2022-10-08T13:08:40.562Z,10.00
2022-10-08T13:11:43.564Z,6.43
2022-10-08T13:14:46.342Z,6.73
2022-10-08T13:17:49.611Z,8.38
2022-10-08T13:21:01.426Z,8.25
2022-10-08T13:24:13.158Z,8.63
2022-10-08T13:27:29.325Z,10.35
2022-10-08T13:30:32.137Z,8.40
2022-10-08T13:33:35.165Z,7.53
2022-10-08T13:36:38.147Z,7.85
2022-10-08T13:39:43.641Z,9.68
2022-10-08T13:42:49.863Z,11.82
2022-10-08T13:45:52.733Z,7.90
2022-10-08T13:48:55.425Z,8.05
2022-10-08T13:52:00.926Z,8.57
2022-10-08T13:55:07.794Z,7.68
2022-10-08T13:58:13.983Z,9.98
2022-10-08T14:01:16.781Z,11.80
2022-10-08T14:04:19.838Z,12.98
2022-10-08T14:07:30.320Z,12.80
2022-10-08T14:10:33.381Z,15.45
2022-10-08T14:13:36.350Z,13.15
2022-10-08T14:16:39.270Z,11.20
2022-10-08T14:19:42.084Z,12.20
2022-10-08T14:22:45.243Z,13.48
2022-10-08T14:25:48.135Z,10.70
2022-10-08T14:28:50.874Z,8.23
2022-10-08T14:31:53.737Z,12.43
2022-10-08T14:34:56.591Z,7.85
2022-10-08T14:37:59.482Z,9.65
2022-10-08T14:41:02.293Z,8.32
2022-10-08T14:44:05.201Z,7.32
2022-10-08T14:47:07.886Z,8.70
2022-10-08T14:50:10.982Z,10.00
2022-10-08T14:53:14.332Z,10.55
2022-10-08T14:56:17.175Z,10.63
2022-10-08T14:59:20.014Z,11.32
2022-10-08T15:02:22.917Z,10.53
2022-10-08T15:05:25.693Z,9.23
2022-10-08T15:08:28.982Z,10.60
2022-10-08T15:11:31.778Z,9.13
2022-10-08T15:14:38.216Z,12.05
2022-10-08T15:17:41.315Z,11.53
2022-10-08T15:20:44.127Z,15.55
2022-10-08T15:23:46.858Z,11.35
2022-10-08T15:26:49.638Z,11.18
2022-10-08T15:29:52.436Z,13.43
2022-10-08T15:32:55.359Z,11.63
2022-10-08T15:35:58.495Z,11.80
2022-10-08T15:39:05.170Z,16.20
2022-10-08T15:42:08.080Z,13.90
2022-10-08T15:45:11.070Z,18.65
2022-10-08T15:48:14.241Z,17.63
2022-10-08T15:51:17.029Z,25.40
2022-10-08T15:54:20.057Z,23.33
2022-10-08T15:57:22.927Z,24.08
2022-10-08T16:00:25.657Z,21.30
2022-10-08T16:03:28.377Z,25.90
2022-10-08T16:06:35.962Z,16.33
2022-10-08T16:09:38.740Z,23.83
2022-10-08T16:12:41.502Z,23.40
2022-10-08T16:15:44.148Z,25.40
2022-10-08T16:18:52.996Z,27.47
2022-10-08T16:21:57.610Z,32.90
2022-10-08T16:25:00.491Z,32.30
2022-10-08T16:28:03.200Z,34.58
2022-10-08T16:31:07.853Z,38.42
2022-10-08T16:34:19.912Z,31.80
2022-10-08T16:37:22.624Z,33.85
2022-10-08T16:40:25.354Z,49.40
2022-10-08T16:43:29.078Z,37.55
2022-10-08T16:46:35.222Z,39.90
2022-10-08T16:49:38.228Z,38.67
2022-10-08T16:52:41.095Z,39.17
2022-10-08T16:55:44.073Z,45.05
2022-10-08T16:58:55.326Z,59.30
2022-10-08T17:01:59.443Z,58.50
2022-10-08T17:05:02.310Z,63.27
2022-10-08T17:08:05.018Z,54.15
2022-10-08T17:11:09.972Z,41.05
2022-10-08T17:14:13.296Z,44.78
2022-10-08T17:17:16.103Z,40.92
2022-10-08T17:20:18.888Z,41.87
2022-10-08T17:23:21.918Z,45.50
2022-10-08T17:26:26.336Z,47.75
2022-10-08T17:29:29.089Z,39.42
2022-10-08T17:32:31.974Z,38.58
2022-10-08T17:35:34.747Z,32.33
2022-10-08T17:38:39.318Z,40.97
2022-10-08T17:41:43.088Z,41.90
2022-10-08T17:44:45.855Z,43.03
2022-10-08T17:47:48.620Z,47.45
2022-10-08T17:50:51.739Z,43.37
2022-10-08T17:53:56.825Z,42.95
2022-10-08T17:57:00.093Z,42.35
2022-10-08T18:00:02.905Z,38.30
2022-10-08T18:03:11.826Z,35.50
2022-10-08T18:06:16.764Z,37.10
2022-10-08T18:09:21.099Z,37.47
2022-10-08T18:12:23.834Z,35.65
2022-10-08T18:15:26.535Z,38.50
2022-10-08T18:18:29.327Z,41.25
2022-10-08T18:21:32.444Z,41.73
2022-10-08T18:24:35.215Z,40.45
2022-10-08T18:27:38.029Z,42.72
2022-10-08T18:30:41.090Z,41.63
2022-10-08T18:33:46.011Z,41.05
2022-10-08T18:36:49.024Z,38.80
2022-10-08T18:39:51.803Z,38.17
2022-10-08T18:42:54.598Z,45.85
2022-10-08T18:46:02.880Z,39.90
2022-10-08T18:49:06.632Z,48.20
2022-10-08T18:52:09.422Z,49.83
2022-10-08T18:55:12.408Z,50.08
2022-10-08T18:58:15.264Z,44.80
2022-10-08T19:01:20.939Z,42.53
2022-10-08T19:04:24.180Z,52.50
2022-10-08T19:07:26.878Z,58.33
2022-10-08T19:10:30.217Z,53.88
2022-10-08T19:13:32.879Z,51.50
2022-10-08T19:16:36.687Z,54.47
2022-10-08T19:19:39.488Z,52.38
2022-10-08T19:22:42.272Z,48.37
2022-10-08T19:25:45.066Z,44.83
2022-10-08T19:28:50.598Z,43.17
2022-10-08T19:31:53.526Z,44.42
2022-10-08T19:34:56.403Z,45.25
2022-10-08T19:37:59.220Z,40.87
2022-10-08T19:41:06.986Z,49.78
2022-10-08T19:44:10.337Z,40.22
2022-10-08T19:47:13.134Z,43.55
2022-10-08T19:50:16.043Z,42.70
2022-10-08T19:53:18.769Z,39.97
2022-10-08T19:56:22.447Z,39.72
2022-10-08T19:59:25.414Z,35.05
2022-10-08T20:02:28.421Z,43.45
2022-10-08T20:05:32.740Z,37.72
2022-10-08T20:08:36.638Z,36.00
2022-10-08T20:11:40.402Z,36.53
2022-10-08T20:14:43.253Z,44.42
2022-10-08T20:17:46.477Z,46.03
2022-10-08T20:20:59.335Z,47.13
2022-10-08T20:24:02.506Z,43.80
2022-10-08T20:27:05.256Z,45.38
2022-10-08T20:30:08.581Z,47.00
2022-10-08T20:33:11.451Z,52.08
2022-10-08T20:36:17.283Z,61.50
2022-10-08T20:39:21.821Z,55.83
2022-10-08T20:42:24.755Z,54.60
2022-10-08T20:45:27.472Z,62.33
2022-10-08T20:48:34.531Z,61.25
2022-10-08T20:51:39.318Z,65.93
2022-10-08T20:54:43.397Z,59.60
2022-10-08T20:57:46.993Z,56.47
2022-10-08T21:00:49.764Z,49.15
2022-10-08T21:03:54.548Z,44.50
2022-10-08T21:06:57.275Z,40.65
2022-10-08T21:10:00.339Z,33.03
2022-10-08T21:13:04.352Z,26.40
2022-10-08T21:16:11.712Z,28.90
2022-10-08T21:19:21.627Z,29.95
2022-10-08T21:22:24.419Z,31.48
2022-10-08T21:25:27.151Z,26.83
2022-10-08T21:28:30.169Z,27.70
2022-10-08T21:31:35.043Z,27.38
2022-10-08T21:34:37.845Z,24.98
2022-10-08T21:37:40.589Z,24.17
2022-10-08T21:40:43.420Z,27.17
2022-10-08T21:43:51.671Z,43.17
2022-10-08T21:46:54.470Z,44.60
2022-10-08T21:49:57.202Z,43.40
2022-10-08T21:53:00.029Z,42.55
2022-10-08T21:56:07.447Z,44.33
2022-10-08T21:59:13.405Z,44.72
2022-10-08T22:02:16.315Z,49.97
2022-10-08T22:05:19.026Z,43.55
2022-10-08T22:08:23.775Z,43.53
2022-10-08T22:11:26.524Z,36.70
2022-10-08T22:14:30.004Z,40.17
2022-10-08T22:17:32.732Z,43.72
2022-10-08T22:20:36.147Z,42.05
2022-10-08T22:23:39.144Z,38.22
2022-10-08T22:26:45.156Z,37.40
2022-10-08T22:29:47.799Z,40.55
2022-10-08T22:32:51.001Z,36.88
2022-10-08T22:35:59.182Z,37.10
2022-10-08T22:39:02.285Z,36.67
2022-10-08T22:42:05.240Z,33.43
2022-10-08T22:45:08.492Z,34.72
2022-10-08T22:48:11.210Z,34.45
2022-10-08T22:51:19.576Z,36.90
2022-10-08T22:54:22.445Z,33.50
2022-10-08T22:57:25.185Z,32.53
2022-10-08T23:00:29.951Z,31.85
2022-10-08T23:03:33.141Z,28.52
2022-10-08T23:06:36.375Z,31.50
2022-10-08T23:09:39.082Z,33.75
2022-10-08T23:12:41.786Z,32.70
2022-10-08T23:15:44.840Z,32.47
2022-10-08T23:18:55.858Z,31.88
2022-10-08T23:21:58.643Z,28.17
2022-10-08T23:25:01.442Z,25.00
2022-10-08T23:28:04.327Z,25.10
2022-10-08T23:31:08.527Z,25.27
2022-10-08T23:34:11.416Z,24.08
2022-10-08T23:37:14.075Z,25.58
2022-10-08T23:40:19.104Z,23.65
2022-10-08T23:43:22.152Z,24.43
2022-10-08T23:46:27.708Z,21.42
2022-10-08T23:49:30.497Z,23.48
2022-10-08T23:52:33.280Z,26.17
2022-10-08T23:55:35.956Z,23.00
2022-10-08T23:58:39.411Z,20.27
